sensor_id;sensor_type;location;lat;lon;timestamp;temperature;humidity
19646;DHT22;9971;52.446;13.452;2023-04-04T00:01:34;4.10;99.90
19646;DHT22;9971;52.446;13.452;2023-04-04T00:06:36;4.00;99.90
19646;DHT22;9971;52.446;13.452;2023-04-04T00:11:39;4.00;99.90
19646;DHT22;9971;52.446;13.452;2023-04-04T00:16:40;3.90;99.90
19646;DHT22;9971;52.446;13.452;2023-04-04T00:21:43;3.90;99.90
19646;DHT22;9971;52.446;13.452;2023-04-04T00:26:45;3.80;99.90
19646;DHT22;9971;52.446;13.452;2023-04-04T00:31:48;3.80;99.90
19646;DHT22;9971;52.446;13.452;2023-04-04T00:36:50;3.70;99.90
19646;DHT22;9971;52.446;13.452;2023-04-04T00:41:52;3.70;99.90
19646;DHT22;9971;52.446;13.452;2023-04-04T00:46:54;3.60;99.90
19646;DHT22;9971;52.446;13.452;2023-04-04T00:51:57;3.60;99.90
19646;DHT22;9971;52.446;13.452;2023-04-04T00:56:59;3.50;99.90
19646;DHT22;9971;52.446;13.452;2023-04-04T01:02:01;3.50;99.90
19646;DHT22;9971;52.446;13.452;2023-04-04T01:07:03;3.40;99.90
19646;DHT22;9971;52.446;13.452;2023-04-04T01:12:05;3.40;99.90
19646;DHT22;9971;52.446;13.452;2023-04-04T01:17:08;3.40;99.90
19646;DHT22;9971;52.446;13.452;2023-04-04T01:22:10;3.30;99.90
19646;DHT22;9971;52.446;13.452;2023-04-04T01:27:12;3.20;99.90
19646;DHT22;9971;52.446;13.452;2023-04-04T01:32:19;3.20;99.90
19646;DHT22;9971;52.446;13.452;2023-04-04T01:37:56;3.10;99.90
19646;DHT22;9971;52.446;13.452;2023-04-04T01:42:38;3.10;99.90
19646;DHT22;9971;52.446;13.452;2023-04-04T01:47:41;3.10;99.90
19646;DHT22;9971;52.446;13.452;2023-04-04T01:52:43;3.00;99.90
19646;DHT22;9971;52.446;13.452;2023-04-04T01:57:45;3.00;99.90
19646;DHT22;9971;52.446;13.452;2023-04-04T02:02:48;3.00;99.90
19646;DHT22;9971;52.446;13.452;2023-04-04T02:07:50;3.00;99.90
19646;DHT22;9971;52.446;13.452;2023-04-04T02:12:52;3.00;99.90
19646;DHT22;9971;52.446;13.452;2023-04-04T02:17:54;2.90;99.90
19646;DHT22;9971;52.446;13.452;2023-04-04T02:22:57;2.80;99.90
19646;DHT22;9971;52.446;13.452;2023-04-04T02:27:59;2.80;99.90
19646;DHT22;9971;52.446;13.452;2023-04-04T02:33:02;2.80;99.90
19646;DHT22;9971;52.446;13.452;2023-04-04T02:38:04;2.80;99.90
19646;DHT22;9971;52.446;13.452;2023-04-04T02:43:07;2.80;99.90
19646;DHT22;9971;52.446;13.452;2023-04-04T02:48:09;2.70;99.90
19646;DHT22;9971;52.446;13.452;2023-04-04T02:53:12;2.70;99.90
19646;DHT22;9971;52.446;13.452;2023-04-04T02:58:14;2.70;99.90
19646;DHT22;9971;52.446;13.452;2023-04-04T03:03:16;2.70;99.90
19646;DHT22;9971;52.446;13.452;2023-04-04T03:08:19;2.60;99.90
19646;DHT22;9971;52.446;13.452;2023-04-04T03:13:21;2.50;99.90
19646;DHT22;9971;52.446;13.452;2023-04-04T03:18:24;2.60;99.90
19646;DHT22;9971;52.446;13.452;2023-04-04T03:23:26;2.50;99.90
19646;DHT22;9971;52.446;13.452;2023-04-04T03:28:28;2.40;99.90
19646;DHT22;9971;52.446;13.452;2023-04-04T03:33:31;2.40;99.90
19646;DHT22;9971;52.446;13.452;2023-04-04T03:38:33;2.30;99.90
19646;DHT22;9971;52.446;13.452;2023-04-04T03:43:35;2.40;99.90
19646;DHT22;9971;52.446;13.452;2023-04-04T03:48:38;2.30;99.90
19646;DHT22;9971;52.446;13.452;2023-04-04T03:53:41;2.30;99.90
19646;DHT22;9971;52.446;13.452;2023-04-04T03:58:44;2.30;99.90
19646;DHT22;9971;52.446;13.452;2023-04-04T04:03:50;2.20;99.90
19646;DHT22;9971;52.446;13.452;2023-04-04T04:08:53;2.20;99.90
19646;DHT22;9971;52.446;13.452;2023-04-04T04:13:55;2.20;99.90
19646;DHT22;9971;52.446;13.452;2023-04-04T04:18:57;2.30;99.90
19646;DHT22;9971;52.446;13.452;2023-04-04T04:24:00;2.40;99.90
19646;DHT22;9971;52.446;13.452;2023-04-04T04:29:02;2.30;99.90
19646;DHT22;9971;52.446;13.452;2023-04-04T04:34:05;2.20;99.90
19646;DHT22;9971;52.446;13.452;2023-04-04T04:39:07;2.20;99.90
19646;DHT22;9971;52.446;13.452;2023-04-04T04:44:09;2.20;99.90
19646;DHT22;9971;52.446;13.452;2023-04-04T04:49:12;2.20;99.90
19646;DHT22;9971;52.446;13.452;2023-04-04T05:19:14;2.30;99.90
19646;DHT22;9971;52.446;13.452;2023-04-04T05:24:17;6.60;99.90
19646;DHT22;9971;52.446;13.452;2023-04-04T05:29:19;5.20;99.90
19646;DHT22;9971;52.446;13.452;2023-04-04T05:34:22;4.20;99.90
19646;DHT22;9971;52.446;13.452;2023-04-04T05:39:24;3.60;99.90
19646;DHT22;9971;52.446;13.452;2023-04-04T05:44:27;3.40;99.90
19646;DHT22;9971;52.446;13.452;2023-04-04T05:49:29;3.30;99.90
19646;DHT22;9971;52.446;13.452;2023-04-04T05:54:32;3.30;99.90
19646;DHT22;9971;52.446;13.452;2023-04-04T05:59:34;3.30;99.90
19646;DHT22;9971;52.446;13.452;2023-04-04T06:04:37;3.30;99.90
19646;DHT22;9971;52.446;13.452;2023-04-04T06:09:39;3.40;99.90
19646;DHT22;9971;52.446;13.452;2023-04-04T06:14:42;3.60;99.90
19646;DHT22;9971;52.446;13.452;2023-04-04T06:19:44;3.60;99.90
19646;DHT22;9971;52.446;13.452;2023-04-04T06:24:47;3.80;99.90
19646;DHT22;9971;52.446;13.452;2023-04-04T06:29:49;3.90;99.90
19646;DHT22;9971;52.446;13.452;2023-04-04T06:34:52;4.00;99.90
19646;DHT22;9971;52.446;13.452;2023-04-04T06:39:54;4.10;99.90
19646;DHT22;9971;52.446;13.452;2023-04-04T06:44:57;4.20;99.90
19646;DHT22;9971;52.446;13.452;2023-04-04T06:49:59;4.30;99.90
19646;DHT22;9971;52.446;13.452;2023-04-04T06:55:01;4.50;99.90
19646;DHT22;9971;52.446;13.452;2023-04-04T07:00:04;4.70;99.90
19646;DHT22;9971;52.446;13.452;2023-04-04T07:05:07;4.90;99.90
19646;DHT22;9971;52.446;13.452;2023-04-04T07:10:10;5.00;99.90
19646;DHT22;9971;52.446;13.452;2023-04-04T07:15:12;5.10;99.90
19646;DHT22;9971;52.446;13.452;2023-04-04T07:20:14;5.20;99.90
19646;DHT22;9971;52.446;13.452;2023-04-04T07:25:17;5.30;99.90
19646;DHT22;9971;52.446;13.452;2023-04-04T07:30:19;5.40;99.90
19646;DHT22;9971;52.446;13.452;2023-04-04T07:35:22;5.40;99.90
19646;DHT22;9971;52.446;13.452;2023-04-04T07:40:24;5.60;99.90
19646;DHT22;9971;52.446;13.452;2023-04-04T07:45:26;5.60;99.90
19646;DHT22;9971;52.446;13.452;2023-04-04T07:50:28;5.70;99.90
19646;DHT22;9971;52.446;13.452;2023-04-04T07:55:31;5.80;99.90
19646;DHT22;9971;52.446;13.452;2023-04-04T08:00:33;5.80;99.90
19646;DHT22;9971;52.446;13.452;2023-04-04T08:05:35;5.90;99.90
19646;DHT22;9971;52.446;13.452;2023-04-04T08:10:38;6.00;99.90
19646;DHT22;9971;52.446;13.452;2023-04-04T08:15:40;6.00;99.90
19646;DHT22;9971;52.446;13.452;2023-04-04T08:20:43;6.10;99.90
19646;DHT22;9971;52.446;13.452;2023-04-04T08:25:45;6.30;99.90
19646;DHT22;9971;52.446;13.452;2023-04-04T08:30:48;6.20;99.90
19646;DHT22;9971;52.446;13.452;2023-04-04T08:35:50;6.30;99.90
19646;DHT22;9971;52.446;13.452;2023-04-04T08:40:52;6.50;99.90
19646;DHT22;9971;52.446;13.452;2023-04-04T08:45:54;6.80;99.90
19646;DHT22;9971;52.446;13.452;2023-04-04T08:50:57;7.00;99.90
19646;DHT22;9971;52.446;13.452;2023-04-04T08:55:59;7.00;99.90
19646;DHT22;9971;52.446;13.452;2023-04-04T09:01:01;7.20;99.90
19646;DHT22;9971;52.446;13.452;2023-04-04T09:06:03;7.40;99.90
19646;DHT22;9971;52.446;13.452;2023-04-04T09:11:05;7.60;99.90
19646;DHT22;9971;52.446;13.452;2023-04-04T09:16:07;7.70;99.90
19646;DHT22;9971;52.446;13.452;2023-04-04T09:21:10;7.70;99.90
19646;DHT22;9971;52.446;13.452;2023-04-04T09:26:12;7.90;99.50
19646;DHT22;9971;52.446;13.452;2023-04-04T09:31:15;8.20;98.60
19646;DHT22;9971;52.446;13.452;2023-04-04T09:36:16;8.60;99.90
19646;DHT22;9971;52.446;13.452;2023-04-04T09:41:19;8.90;98.30
19646;DHT22;9971;52.446;13.452;2023-04-04T09:46:21;9.10;95.90
19646;DHT22;9971;52.446;13.452;2023-04-04T09:51:23;9.30;96.30
19646;DHT22;9971;52.446;13.452;2023-04-04T09:56:25;9.40;95.10
19646;DHT22;9971;52.446;13.452;2023-04-04T10:01:27;9.90;96.20
19646;DHT22;9971;52.446;13.452;2023-04-04T10:06:30;9.90;94.40
19646;DHT22;9971;52.446;13.452;2023-04-04T10:11:32;9.70;93.00
19646;DHT22;9971;52.446;13.452;2023-04-04T10:16:33;9.50;93.60
19646;DHT22;9971;52.446;13.452;2023-04-04T10:21:38;9.50;94.40
19646;DHT22;9971;52.446;13.452;2023-04-04T10:26:40;9.50;92.80
19646;DHT22;9971;52.446;13.452;2023-04-04T10:31:42;9.40;92.40
19646;DHT22;9971;52.446;13.452;2023-04-04T10:36:49;9.40;93.10
19646;DHT22;9971;52.446;13.452;2023-04-04T10:41:50;9.60;93.20
19646;DHT22;9971;52.446;13.452;2023-04-04T10:46:52;9.60;91.90
19646;DHT22;9971;52.446;13.452;2023-04-04T10:51:54;9.90;91.20
19646;DHT22;9971;52.446;13.452;2023-04-04T10:56:56;10.40;90.50
19646;DHT22;9971;52.446;13.452;2023-04-04T11:01:58;11.10;86.60
19646;DHT22;9971;52.446;13.452;2023-04-04T11:07:11;11.30;84.60
19646;DHT22;9971;52.446;13.452;2023-04-04T11:12:12;11.20;82.60
19646;DHT22;9971;52.446;13.452;2023-04-04T11:17:42;11.00;83.60
19646;DHT22;9971;52.446;13.452;2023-04-04T11:22:44;10.80;81.60
19646;DHT22;9971;52.446;13.452;2023-04-04T11:27:46;10.60;79.90
19646;DHT22;9971;52.446;13.452;2023-04-04T11:32:48;10.40;79.10
19646;DHT22;9971;52.446;13.452;2023-04-04T11:38:11;10.80;80.80
19646;DHT22;9971;52.446;13.452;2023-04-04T11:43:08;11.20;75.60
19646;DHT22;9971;52.446;13.452;2023-04-04T11:48:09;11.80;76.70
19646;DHT22;9971;52.446;13.452;2023-04-04T11:53:11;12.10;72.10
19646;DHT22;9971;52.446;13.452;2023-04-04T11:58:14;12.20;72.30
19646;DHT22;9971;52.446;13.452;2023-04-04T12:03:15;12.00;70.10
19646;DHT22;9971;52.446;13.452;2023-04-04T12:08:17;11.80;70.20
19646;DHT22;9971;52.446;13.452;2023-04-04T12:13:19;11.50;70.40
19646;DHT22;9971;52.446;13.452;2023-04-04T12:18:21;11.40;67.10
19646;DHT22;9971;52.446;13.452;2023-04-04T12:23:24;11.50;66.10
19646;DHT22;9971;52.446;13.452;2023-04-04T12:28:26;11.60;72.40
19646;DHT22;9971;52.446;13.452;2023-04-04T12:33:28;11.90;68.60
19646;DHT22;9971;52.446;13.452;2023-04-04T12:38:30;11.90;66.60
19646;DHT22;9971;52.446;13.452;2023-04-04T12:43:33;11.80;65.30
19646;DHT22;9971;52.446;13.452;2023-04-04T12:48:35;12.30;66.90
19646;DHT22;9971;52.446;13.452;2023-04-04T12:53:49;12.20;68.20
19646;DHT22;9971;52.446;13.452;2023-04-04T12:58:39;12.10;67.60
19646;DHT22;9971;52.446;13.452;2023-04-04T13:03:41;11.90;67.30
19646;DHT22;9971;52.446;13.452;2023-04-04T13:08:49;12.10;67.00
19646;DHT22;9971;52.446;13.452;2023-04-04T13:14:00;12.20;68.00
19646;DHT22;9971;52.446;13.452;2023-04-04T13:19:01;11.90;64.80
19646;DHT22;9971;52.446;13.452;2023-04-04T13:24:03;11.60;63.30
19646;DHT22;9971;52.446;13.452;2023-04-04T13:29:06;11.90;65.00
19646;DHT22;9971;52.446;13.452;2023-04-04T13:34:08;12.10;64.80
19646;DHT22;9971;52.446;13.452;2023-04-04T13:39:11;12.30;63.60
19646;DHT22;9971;52.446;13.452;2023-04-04T13:44:13;12.30;63.60
19646;DHT22;9971;52.446;13.452;2023-04-04T13:49:15;12.30;63.20
19646;DHT22;9971;52.446;13.452;2023-04-04T13:54:18;12.50;62.60
19646;DHT22;9971;52.446;13.452;2023-04-04T13:59:20;12.80;61.00
19646;DHT22;9971;52.446;13.452;2023-04-04T14:04:23;13.00;61.70
19646;DHT22;9971;52.446;13.452;2023-04-04T14:09:25;12.90;63.10
19646;DHT22;9971;52.446;13.452;2023-04-04T14:14:27;12.60;61.30
19646;DHT22;9971;52.446;13.452;2023-04-04T14:19:30;12.40;62.10
19646;DHT22;9971;52.446;13.452;2023-04-04T14:24:32;12.20;64.00
19646;DHT22;9971;52.446;13.452;2023-04-04T14:29:35;12.20;65.50
19646;DHT22;9971;52.446;13.452;2023-04-04T14:34:37;12.50;62.30
19646;DHT22;9971;52.446;13.452;2023-04-04T14:39:40;12.30;62.10
19646;DHT22;9971;52.446;13.452;2023-04-04T14:44:42;12.20;62.10
19646;DHT22;9971;52.446;13.452;2023-04-04T14:49:45;11.90;59.20
19646;DHT22;9971;52.446;13.452;2023-04-04T14:54:47;11.70;59.90
19646;DHT22;9971;52.446;13.452;2023-04-04T14:59:50;11.60;59.70
19646;DHT22;9971;52.446;13.452;2023-04-04T15:04:52;11.70;60.60
19646;DHT22;9971;52.446;13.452;2023-04-04T15:34:55;11.80;59.60
19646;DHT22;9971;52.446;13.452;2023-04-04T15:39:58;13.80;56.50
19646;DHT22;9971;52.446;13.452;2023-04-04T15:45:00;12.70;56.40
19646;DHT22;9971;52.446;13.452;2023-04-04T15:50:03;12.00;58.20
19646;DHT22;9971;52.446;13.452;2023-04-04T15:55:09;11.60;60.00
19646;DHT22;9971;52.446;13.452;2023-04-04T16:00:11;11.20;62.20
19646;DHT22;9971;52.446;13.452;2023-04-04T16:05:13;11.00;63.60
19646;DHT22;9971;52.446;13.452;2023-04-04T16:10:16;10.90;64.50
19646;DHT22;9971;52.446;13.452;2023-04-04T16:15:18;10.80;65.00
19646;DHT22;9971;52.446;13.452;2023-04-04T16:20:20;10.70;64.70
19646;DHT22;9971;52.446;13.452;2023-04-04T16:25:23;10.60;65.00
19646;DHT22;9971;52.446;13.452;2023-04-04T16:30:25;10.50;64.90
19646;DHT22;9971;52.446;13.452;2023-04-04T16:35:27;10.40;65.20
19646;DHT22;9971;52.446;13.452;2023-04-04T16:40:30;10.30;66.30
19646;DHT22;9971;52.446;13.452;2023-04-04T16:45:32;10.20;67.00
19646;DHT22;9971;52.446;13.452;2023-04-04T16:50:35;10.10;68.30
19646;DHT22;9971;52.446;13.452;2023-04-04T16:55:37;10.00;68.40
19646;DHT22;9971;52.446;13.452;2023-04-04T17:00:40;10.00;67.50
19646;DHT22;9971;52.446;13.452;2023-04-04T17:05:42;9.90;68.30
19646;DHT22;9971;52.446;13.452;2023-04-04T17:10:44;9.80;68.50
19646;DHT22;9971;52.446;13.452;2023-04-04T17:15:47;9.70;69.20
19646;DHT22;9971;52.446;13.452;2023-04-04T17:20:49;9.60;69.90
19646;DHT22;9971;52.446;13.452;2023-04-04T17:25:51;9.60;71.40
19646;DHT22;9971;52.446;13.452;2023-04-04T17:30:53;9.50;72.40
19646;DHT22;9971;52.446;13.452;2023-04-04T17:35:56;9.50;72.80
19646;DHT22;9971;52.446;13.452;2023-04-04T17:40:58;9.50;73.80
19646;DHT22;9971;52.446;13.452;2023-04-04T17:46:01;9.40;74.50
19646;DHT22;9971;52.446;13.452;2023-04-04T17:51:03;9.40;75.30
19646;DHT22;9971;52.446;13.452;2023-04-04T17:56:06;9.30;76.20
19646;DHT22;9971;52.446;13.452;2023-04-04T18:01:08;9.20;76.40
19646;DHT22;9971;52.446;13.452;2023-04-04T18:06:11;9.20;77.80
19646;DHT22;9971;52.446;13.452;2023-04-04T18:11:13;9.10;78.20
19646;DHT22;9971;52.446;13.452;2023-04-04T18:16:15;9.00;78.40
19646;DHT22;9971;52.446;13.452;2023-04-04T18:21:18;9.00;78.60
19646;DHT22;9971;52.446;13.452;2023-04-04T18:26:20;9.00;79.50
19646;DHT22;9971;52.446;13.452;2023-04-04T18:31:22;9.00;79.50
19646;DHT22;9971;52.446;13.452;2023-04-04T18:36:25;8.90;81.00
19646;DHT22;9971;52.446;13.452;2023-04-04T18:41:27;8.90;81.00
19646;DHT22;9971;52.446;13.452;2023-04-04T18:46:30;8.80;81.00
19646;DHT22;9971;52.446;13.452;2023-04-04T18:51:32;8.80;81.60
19646;DHT22;9971;52.446;13.452;2023-04-04T18:56:34;8.70;82.00
19646;DHT22;9971;52.446;13.452;2023-04-04T19:01:37;8.70;82.60
19646;DHT22;9971;52.446;13.452;2023-04-04T19:06:39;8.50;83.00
19646;DHT22;9971;52.446;13.452;2023-04-04T19:11:42;8.50;83.30
19646;DHT22;9971;52.446;13.452;2023-04-04T19:16:44;8.50;83.60
19646;DHT22;9971;52.446;13.452;2023-04-04T19:21:47;8.40;84.20
19646;DHT22;9971;52.446;13.452;2023-04-04T19:26:49;8.30;85.00
19646;DHT22;9971;52.446;13.452;2023-04-04T19:56:58;8.30;85.00
19646;DHT22;9971;52.446;13.452;2023-04-04T20:27:00;11.40;85.20
19646;DHT22;9971;52.446;13.452;2023-04-04T20:32:03;13.20;78.90
19646;DHT22;9971;52.446;13.452;2023-04-04T20:37:06;10.60;79.70
19646;DHT22;9971;52.446;13.452;2023-04-04T20:42:38;9.10;83.30
19646;DHT22;9971;52.446;13.452;2023-04-04T20:47:39;8.30;86.30
19646;DHT22;9971;52.446;13.452;2023-04-04T20:52:36;7.70;88.90
19646;DHT22;9971;52.446;13.452;2023-04-04T20:57:39;7.30;90.00
19646;DHT22;9971;52.446;13.452;2023-04-04T21:02:41;7.10;90.60
19646;DHT22;9971;52.446;13.452;2023-04-04T21:07:44;7.00;91.30
19646;DHT22;9971;52.446;13.452;2023-04-04T21:12:46;6.80;91.80
19646;DHT22;9971;52.446;13.452;2023-04-04T21:17:48;6.70;91.90
19646;DHT22;9971;52.446;13.452;2023-04-04T21:22:51;6.60;92.70
19646;DHT22;9971;52.446;13.452;2023-04-04T21:27:53;6.50;93.20
19646;DHT22;9971;52.446;13.452;2023-04-04T21:32:55;6.50;93.10
19646;DHT22;9971;52.446;13.452;2023-04-04T21:37:58;6.40;93.40
19646;DHT22;9971;52.446;13.452;2023-04-04T21:43:00;6.20;92.60
19646;DHT22;9971;52.446;13.452;2023-04-04T21:48:03;6.00;92.60
19646;DHT22;9971;52.446;13.452;2023-04-04T21:53:05;6.00;93.10
19646;DHT22;9971;52.446;13.452;2023-04-04T21:58:08;5.80;93.60
19646;DHT22;9971;52.446;13.452;2023-04-04T22:03:10;5.70;93.90
19646;DHT22;9971;52.446;13.452;2023-04-04T22:08:13;5.60;94.10
19646;DHT22;9971;52.446;13.452;2023-04-04T22:13:15;5.60;94.10
19646;DHT22;9971;52.446;13.452;2023-04-04T22:18:16;5.50;94.50
19646;DHT22;9971;52.446;13.452;2023-04-04T22:23:19;5.40;94.50
19646;DHT22;9971;52.446;13.452;2023-04-04T22:28:21;5.40;94.90
19646;DHT22;9971;52.446;13.452;2023-04-04T22:33:23;5.30;95.00
19646;DHT22;9971;52.446;13.452;2023-04-04T22:38:26;5.20;94.80
19646;DHT22;9971;52.446;13.452;2023-04-04T22:43:28;5.30;95.20
19646;DHT22;9971;52.446;13.452;2023-04-04T22:48:30;5.30;95.60
19646;DHT22;9971;52.446;13.452;2023-04-04T22:53:33;5.20;95.70
19646;DHT22;9971;52.446;13.452;2023-04-04T22:58:35;5.10;97.00
19646;DHT22;9971;52.446;13.452;2023-04-04T23:03:37;5.10;96.30
19646;DHT22;9971;52.446;13.452;2023-04-04T23:08:40;5.00;96.60
19646;DHT22;9971;52.446;13.452;2023-04-04T23:13:42;5.00;97.60
19646;DHT22;9971;52.446;13.452;2023-04-04T23:18:45;5.00;98.50
19646;DHT22;9971;52.446;13.452;2023-04-04T23:23:47;4.90;99.50
19646;DHT22;9971;52.446;13.452;2023-04-04T23:28:49;4.80;99.90
19646;DHT22;9971;52.446;13.452;2023-04-04T23:33:52;4.80;99.90
19646;DHT22;9971;52.446;13.452;2023-04-04T23:38:54;4.60;99.90
19646;DHT22;9971;52.446;13.452;2023-04-04T23:43:56;4.50;99.90
19646;DHT22;9971;52.446;13.452;2023-04-04T23:48:58;4.30;99.90
19646;DHT22;9971;52.446;13.452;2023-04-04T23:54:01;4.10;99.90
19646;DHT22;9971;52.446;13.452;2023-04-04T23:59:03;3.90;99.90
